sensor_id;sensor_type;location;lat;lon;timestamp;temperature;humidity
22917;DHT22;11624;53.250;7.456;2023-03-23T00:02:23;16.71;63.64
22917;DHT22;11624;53.250;7.456;2023-03-23T00:04:51;16.67;63.92
22917;DHT22;11624;53.250;7.456;2023-03-23T00:07:19;16.61;64.21
22917;DHT22;11624;53.250;7.456;2023-03-23T00:09:47;16.71;63.83
22917;DHT22;11624;53.250;7.456;2023-03-23T00:12:19;16.57;64.45
22917;DHT22;11624;53.250;7.456;2023-03-23T00:14:47;16.69;64.00
22917;DHT22;11624;53.250;7.456;2023-03-23T00:17:21;16.75;63.71
22917;DHT22;11624;53.250;7.456;2023-03-23T00:19:49;16.71;63.77
22917;DHT22;11624;53.250;7.456;2023-03-23T00:22:16;16.81;63.68
22917;DHT22;11624;53.250;7.456;2023-03-23T00:24:47;16.66;64.15
22917;DHT22;11624;53.250;7.456;2023-03-23T00:27:16;16.48;64.76
22917;DHT22;11624;53.250;7.456;2023-03-23T00:29:44;16.56;64.63
22917;DHT22;11624;53.250;7.456;2023-03-23T00:32:13;16.56;64.61
22917;DHT22;11624;53.250;7.456;2023-03-23T00:34:43;16.71;64.08
22917;DHT22;11624;53.250;7.456;2023-03-23T00:37:11;16.58;64.47
22917;DHT22;11624;53.250;7.456;2023-03-23T00:39:42;16.52;64.72
22917;DHT22;11624;53.250;7.456;2023-03-23T00:42:12;16.60;64.51
22917;DHT22;11624;53.250;7.456;2023-03-23T00:44:39;16.70;64.30
22917;DHT22;11624;53.250;7.456;2023-03-23T00:47:07;16.71;64.13
22917;DHT22;11624;53.250;7.456;2023-03-23T00:49:37;16.67;64.30
22917;DHT22;11624;53.250;7.456;2023-03-23T00:52:06;16.62;64.03
22917;DHT22;11624;53.250;7.456;2023-03-23T00:54:33;16.72;64.02
22917;DHT22;11624;53.250;7.456;2023-03-23T00:57:02;16.58;64.59
22917;DHT22;11624;53.250;7.456;2023-03-23T00:59:29;16.59;64.47
22917;DHT22;11624;53.250;7.456;2023-03-23T01:01:56;16.54;64.56
22917;DHT22;11624;53.250;7.456;2023-03-23T01:04:23;16.64;64.24
22917;DHT22;11624;53.250;7.456;2023-03-23T01:06:50;16.47;64.38
22917;DHT22;11624;53.250;7.456;2023-03-23T01:09:19;16.50;64.49
22917;DHT22;11624;53.250;7.456;2023-03-23T01:11:48;16.62;64.30
22917;DHT22;11624;53.250;7.456;2023-03-23T01:14:16;16.49;64.43
22917;DHT22;11624;53.250;7.456;2023-03-23T01:16:44;16.59;64.01
22917;DHT22;11624;53.250;7.456;2023-03-23T01:19:11;16.54;64.37
22917;DHT22;11624;53.250;7.456;2023-03-23T01:21:38;16.66;64.06
22917;DHT22;11624;53.250;7.456;2023-03-23T01:24:06;16.65;64.00
22917;DHT22;11624;53.250;7.456;2023-03-23T01:26:34;16.72;63.79
22917;DHT22;11624;53.250;7.456;2023-03-23T01:29:02;16.65;63.82
22917;DHT22;11624;53.250;7.456;2023-03-23T01:31:29;16.71;63.84
22917;DHT22;11624;53.250;7.456;2023-03-23T01:33:56;16.73;63.75
22917;DHT22;11624;53.250;7.456;2023-03-23T01:36:25;16.78;63.34
22917;DHT22;11624;53.250;7.456;2023-03-23T01:38:58;16.67;63.60
22917;DHT22;11624;53.250;7.456;2023-03-23T01:41:26;16.73;63.39
22917;DHT22;11624;53.250;7.456;2023-03-23T01:43:58;16.82;62.78
22917;DHT22;11624;53.250;7.456;2023-03-23T01:46:29;16.90;62.81
22917;DHT22;11624;53.250;7.456;2023-03-23T01:48:59;16.80;62.85
22917;DHT22;11624;53.250;7.456;2023-03-23T01:51:33;16.79;62.95
22917;DHT22;11624;53.250;7.456;2023-03-23T01:54:04;16.70;63.21
22917;DHT22;11624;53.250;7.456;2023-03-23T01:56:36;16.67;63.02
22917;DHT22;11624;53.250;7.456;2023-03-23T01:59:08;16.67;62.76
22917;DHT22;11624;53.250;7.456;2023-03-23T02:01:38;16.60;63.05
22917;DHT22;11624;53.250;7.456;2023-03-23T02:04:11;16.70;63.02
22917;DHT22;11624;53.250;7.456;2023-03-23T02:06:39;16.91;62.41
22917;DHT22;11624;53.250;7.456;2023-03-23T02:09:13;17.05;61.83
22917;DHT22;11624;53.250;7.456;2023-03-23T02:11:44;17.18;61.43
22917;DHT22;11624;53.250;7.456;2023-03-23T02:14:14;17.18;61.26
22917;DHT22;11624;53.250;7.456;2023-03-23T02:16:45;17.16;61.08
22917;DHT22;11624;53.250;7.456;2023-03-23T02:19:36;17.18;60.92
22917;DHT22;11624;53.250;7.456;2023-03-23T02:22:22;17.06;60.96
22917;DHT22;11624;53.250;7.456;2023-03-23T02:24:59;17.06;60.91
22917;DHT22;11624;53.250;7.456;2023-03-23T02:30:52;16.96;60.19
22917;DHT22;11624;53.250;7.456;2023-03-23T02:33:44;17.00;59.99
22917;DHT22;11624;53.250;7.456;2023-03-23T02:36:19;16.91;59.96
22917;DHT22;11624;53.250;7.456;2023-03-23T02:38:55;16.90;60.11
22917;DHT22;11624;53.250;7.456;2023-03-23T02:41:28;16.91;60.09
22917;DHT22;11624;53.250;7.456;2023-03-23T02:43:56;16.91;59.71
22917;DHT22;11624;53.250;7.456;2023-03-23T02:46:25;16.95;59.84
22917;DHT22;11624;53.250;7.456;2023-03-23T02:48:55;16.93;59.82
22917;DHT22;11624;53.250;7.456;2023-03-23T02:51:24;16.93;59.93
22917;DHT22;11624;53.250;7.456;2023-03-23T02:53:55;16.87;59.91
22917;DHT22;11624;53.250;7.456;2023-03-23T02:56:23;17.00;59.77
22917;DHT22;11624;53.250;7.456;2023-03-23T02:58:51;16.94;59.86
22917;DHT22;11624;53.250;7.456;2023-03-23T03:04:34;16.94;59.76
22917;DHT22;11624;53.250;7.456;2023-03-23T03:07:12;16.99;59.56
22917;DHT22;11624;53.250;7.456;2023-03-23T03:09:47;16.85;59.58
22917;DHT22;11624;53.250;7.456;2023-03-23T03:12:23;16.84;59.46
22917;DHT22;11624;53.250;7.456;2023-03-23T03:14:57;16.86;59.42
22917;DHT22;11624;53.250;7.456;2023-03-23T03:17:25;16.86;59.80
22917;DHT22;11624;53.250;7.456;2023-03-23T03:19:57;16.81;59.67
22917;DHT22;11624;53.250;7.456;2023-03-23T03:22:28;16.86;59.53
22917;DHT22;11624;53.250;7.456;2023-03-23T03:24:57;16.92;59.21
22917;DHT22;11624;53.250;7.456;2023-03-23T03:27:25;16.79;59.22
22917;DHT22;11624;53.250;7.456;2023-03-23T03:30:09;16.77;58.84
22917;DHT22;11624;53.250;7.456;2023-03-23T03:32:44;16.72;59.20
22917;DHT22;11624;53.250;7.456;2023-03-23T03:35:16;16.95;58.77
22917;DHT22;11624;53.250;7.456;2023-03-23T03:37:44;16.99;58.64
22917;DHT22;11624;53.250;7.456;2023-03-23T03:40:14;16.98;58.67
22917;DHT22;11624;53.250;7.456;2023-03-23T03:42:43;16.89;58.82
22917;DHT22;11624;53.250;7.456;2023-03-23T03:45:13;16.71;59.28
22917;DHT22;11624;53.250;7.456;2023-03-23T03:47:40;16.64;59.22
22917;DHT22;11624;53.250;7.456;2023-03-23T03:50:08;16.86;58.80
22917;DHT22;11624;53.250;7.456;2023-03-23T03:52:37;16.85;58.44
22917;DHT22;11624;53.250;7.456;2023-03-23T03:55:07;16.89;58.45
22917;DHT22;11624;53.250;7.456;2023-03-23T03:57:35;16.82;58.85
22917;DHT22;11624;53.250;7.456;2023-03-23T04:00:02;16.75;59.08
22917;DHT22;11624;53.250;7.456;2023-03-23T04:02:41;16.78;58.90
22917;DHT22;11624;53.250;7.456;2023-03-23T04:05:10;16.96;58.51
22917;DHT22;11624;53.250;7.456;2023-03-23T04:07:39;16.92;58.40
22917;DHT22;11624;53.250;7.456;2023-03-23T04:10:08;17.02;58.30
22917;DHT22;11624;53.250;7.456;2023-03-23T04:12:37;16.89;58.50
22917;DHT22;11624;53.250;7.456;2023-03-23T04:15:39;16.90;58.56
22917;DHT22;11624;53.250;7.456;2023-03-23T04:18:06;17.00;58.55
22917;DHT22;11624;53.250;7.456;2023-03-23T04:20:35;16.98;58.45
22917;DHT22;11624;53.250;7.456;2023-03-23T04:23:05;16.81;58.53
22917;DHT22;11624;53.250;7.456;2023-03-23T04:25:33;16.93;58.39
22917;DHT22;11624;53.250;7.456;2023-03-23T04:28:03;16.85;58.27
22917;DHT22;11624;53.250;7.456;2023-03-23T04:30:36;16.98;58.28
22917;DHT22;11624;53.250;7.456;2023-03-23T04:33:07;16.98;58.30
22917;DHT22;11624;53.250;7.456;2023-03-23T04:35:35;16.95;58.18
22917;DHT22;11624;53.250;7.456;2023-03-23T04:38:22;17.04;57.89
22917;DHT22;11624;53.250;7.456;2023-03-23T04:40:56;17.11;57.88
22917;DHT22;11624;53.250;7.456;2023-03-23T04:43:37;17.15;57.93
22917;DHT22;11624;53.250;7.456;2023-03-23T04:46:19;17.09;57.82
22917;DHT22;11624;53.250;7.456;2023-03-23T04:48:49;17.15;57.54
22917;DHT22;11624;53.250;7.456;2023-03-23T04:51:20;17.19;57.64
22917;DHT22;11624;53.250;7.456;2023-03-23T04:53:51;17.37;57.29
22917;DHT22;11624;53.250;7.456;2023-03-23T04:56:19;17.29;57.28
22917;DHT22;11624;53.250;7.456;2023-03-23T04:58:47;17.20;57.38
22917;DHT22;11624;53.250;7.456;2023-03-23T05:01:35;17.39;57.08
22917;DHT22;11624;53.250;7.456;2023-03-23T05:04:15;17.41;56.94
22917;DHT22;11624;53.250;7.456;2023-03-23T05:06:48;17.41;56.58
22917;DHT22;11624;53.250;7.456;2023-03-23T05:09:23;17.38;56.69
22917;DHT22;11624;53.250;7.456;2023-03-23T05:11:52;17.33;56.78
22917;DHT22;11624;53.250;7.456;2023-03-23T05:14:20;17.19;57.30
22917;DHT22;11624;53.250;7.456;2023-03-23T05:16:58;17.26;56.90
22917;DHT22;11624;53.250;7.456;2023-03-23T05:19:25;17.30;57.12
22917;DHT22;11624;53.250;7.456;2023-03-23T05:21:56;17.32;57.22
22917;DHT22;11624;53.250;7.456;2023-03-23T05:24:32;17.22;57.92
22917;DHT22;11624;53.250;7.456;2023-03-23T05:27:02;17.09;58.87
22917;DHT22;11624;53.250;7.456;2023-03-23T05:29:34;17.08;59.12
22917;DHT22;11624;53.250;7.456;2023-03-23T05:32:02;16.93;59.46
22917;DHT22;11624;53.250;7.456;2023-03-23T05:34:34;16.65;58.44
22917;DHT22;11624;53.250;7.456;2023-03-23T05:37:03;16.37;58.30
22917;DHT22;11624;53.250;7.456;2023-03-23T05:39:43;16.25;58.53
22917;DHT22;11624;53.250;7.456;2023-03-23T05:42:23;15.93;59.38
22917;DHT22;11624;53.250;7.456;2023-03-23T05:45:06;15.83;59.61
22917;DHT22;11624;53.250;7.456;2023-03-23T05:47:34;15.89;59.46
22917;DHT22;11624;53.250;7.456;2023-03-23T05:50:09;15.85;59.54
22917;DHT22;11624;53.250;7.456;2023-03-23T05:52:37;15.89;59.47
22917;DHT22;11624;53.250;7.456;2023-03-23T05:55:09;15.88;59.35
22917;DHT22;11624;53.250;7.456;2023-03-23T05:57:39;15.87;59.50
22917;DHT22;11624;53.250;7.456;2023-03-23T06:00:16;15.95;59.41
22917;DHT22;11624;53.250;7.456;2023-03-23T06:02:54;15.86;59.59
22917;DHT22;11624;53.250;7.456;2023-03-23T06:05:29;15.82;59.56
22917;DHT22;11624;53.250;7.456;2023-03-23T06:07:57;15.83;59.80
22917;DHT22;11624;53.250;7.456;2023-03-23T06:10:26;15.93;59.43
22917;DHT22;11624;53.250;7.456;2023-03-23T06:12:57;15.95;59.81
22917;DHT22;11624;53.250;7.456;2023-03-23T06:15:32;15.99;59.93
22917;DHT22;11624;53.250;7.456;2023-03-23T06:17:59;16.04;59.85
22917;DHT22;11624;53.250;7.456;2023-03-23T06:20:34;16.21;59.52
22917;DHT22;11624;53.250;7.456;2023-03-23T06:23:14;16.35;59.34
22917;DHT22;11624;53.250;7.456;2023-03-23T06:25:43;16.42;59.03
22917;DHT22;11624;53.250;7.456;2023-03-23T06:28:11;16.54;58.92
22917;DHT22;11624;53.250;7.456;2023-03-23T06:30:42;16.47;58.79
22917;DHT22;11624;53.250;7.456;2023-03-23T06:33:09;16.56;58.51
22917;DHT22;11624;53.250;7.456;2023-03-23T06:35:55;16.66;58.16
22917;DHT22;11624;53.250;7.456;2023-03-23T06:38:44;16.64;58.24
22917;DHT22;11624;53.250;7.456;2023-03-23T06:41:14;16.73;58.08
22917;DHT22;11624;53.250;7.456;2023-03-23T06:43:41;16.58;58.45
22917;DHT22;11624;53.250;7.456;2023-03-23T06:46:16;16.63;58.31
22917;DHT22;11624;53.250;7.456;2023-03-23T06:48:55;16.71;57.94
22917;DHT22;11624;53.250;7.456;2023-03-23T06:51:50;16.72;58.07
22917;DHT22;11624;53.250;7.456;2023-03-23T06:54:18;16.73;58.20
22917;DHT22;11624;53.250;7.456;2023-03-23T06:56:47;16.77;58.08
22917;DHT22;11624;53.250;7.456;2023-03-23T06:59:16;16.70;58.06
22917;DHT22;11624;53.250;7.456;2023-03-23T07:01:43;16.76;58.13
22917;DHT22;11624;53.250;7.456;2023-03-23T07:04:12;16.84;58.01
22917;DHT22;11624;53.250;7.456;2023-03-23T07:06:49;16.85;57.61
22917;DHT22;11624;53.250;7.456;2023-03-23T07:09:17;16.90;57.67
22917;DHT22;11624;53.250;7.456;2023-03-23T07:11:44;16.92;57.66
22917;DHT22;11624;53.250;7.456;2023-03-23T07:14:28;16.91;57.50
22917;DHT22;11624;53.250;7.456;2023-03-23T07:16:56;16.91;57.29
22917;DHT22;11624;53.250;7.456;2023-03-23T07:19:24;17.01;56.93
22917;DHT22;11624;53.250;7.456;2023-03-23T07:21:52;16.91;57.08
22917;DHT22;11624;53.250;7.456;2023-03-23T07:24:22;17.04;57.04
22917;DHT22;11624;53.250;7.456;2023-03-23T07:27:06;17.13;56.77
22917;DHT22;11624;53.250;7.456;2023-03-23T07:29:36;17.15;56.87
22917;DHT22;11624;53.250;7.456;2023-03-23T07:32:12;17.23;56.44
22917;DHT22;11624;53.250;7.456;2023-03-23T07:34:40;17.34;56.39
22917;DHT22;11624;53.250;7.456;2023-03-23T07:37:21;17.29;56.03
22917;DHT22;11624;53.250;7.456;2023-03-23T07:39:50;17.32;56.02
22917;DHT22;11624;53.250;7.456;2023-03-23T07:42:17;17.34;56.08
22917;DHT22;11624;53.250;7.456;2023-03-23T07:44:55;17.40;55.61
22917;DHT22;11624;53.250;7.456;2023-03-23T07:47:22;17.54;55.20
22917;DHT22;11624;53.250;7.456;2023-03-23T07:49:49;17.61;55.16
22917;DHT22;11624;53.250;7.456;2023-03-23T07:52:27;17.61;54.97
22917;DHT22;11624;53.250;7.456;2023-03-23T07:54:54;17.52;54.72
22917;DHT22;11624;53.250;7.456;2023-03-23T07:57:32;17.36;54.72
22917;DHT22;11624;53.250;7.456;2023-03-23T08:00:01;17.44;55.10
22917;DHT22;11624;53.250;7.456;2023-03-23T08:02:43;17.73;55.22
22917;DHT22;11624;53.250;7.456;2023-03-23T08:05:33;18.05;54.20
22917;DHT22;11624;53.250;7.456;2023-03-23T08:08:39;18.07;53.17
22917;DHT22;11624;53.250;7.456;2023-03-23T08:11:09;17.95;53.06
22917;DHT22;11624;53.250;7.456;2023-03-23T08:13:36;18.05;52.77
22917;DHT22;11624;53.250;7.456;2023-03-23T08:16:25;18.05;52.71
22917;DHT22;11624;53.250;7.456;2023-03-23T08:19:26;17.91;53.10
22917;DHT22;11624;53.250;7.456;2023-03-23T08:22:12;18.04;53.32
22917;DHT22;11624;53.250;7.456;2023-03-23T08:25:02;18.15;53.17
22917;DHT22;11624;53.250;7.456;2023-03-23T08:27:41;18.32;52.53
22917;DHT22;11624;53.250;7.456;2023-03-23T08:30:35;18.52;52.04
22917;DHT22;11624;53.250;7.456;2023-03-23T08:33:30;18.41;52.13
22917;DHT22;11624;53.250;7.456;2023-03-23T08:36:16;18.36;51.98
22917;DHT22;11624;53.250;7.456;2023-03-23T08:39:13;18.39;51.71
22917;DHT22;11624;53.250;7.456;2023-03-23T08:42:14;18.39;51.78
22917;DHT22;11624;53.250;7.456;2023-03-23T08:45:00;18.42;50.52
22917;DHT22;11624;53.250;7.456;2023-03-23T08:48:02;18.36;50.66
22917;DHT22;11624;53.250;7.456;2023-03-23T08:50:50;18.43;51.00
22917;DHT22;11624;53.250;7.456;2023-03-23T08:53:40;18.38;50.93
22917;DHT22;11624;53.250;7.456;2023-03-23T08:56:26;18.41;51.47
22917;DHT22;11624;53.250;7.456;2023-03-23T08:59:07;18.72;51.28
22917;DHT22;11624;53.250;7.456;2023-03-23T09:01:52;18.79;50.14
22917;DHT22;11624;53.250;7.456;2023-03-23T09:04:34;18.70;50.77
22917;DHT22;11624;53.250;7.456;2023-03-23T09:07:22;18.79;50.77
22917;DHT22;11624;53.250;7.456;2023-03-23T09:09:49;18.95;49.07
22917;DHT22;11624;53.250;7.456;2023-03-23T09:12:16;18.91;50.15
22917;DHT22;11624;53.250;7.456;2023-03-23T09:14:44;18.95;50.27
22917;DHT22;11624;53.250;7.456;2023-03-23T09:17:12;18.89;49.85
22917;DHT22;11624;53.250;7.456;2023-03-23T09:19:39;18.96;50.37
22917;DHT22;11624;53.250;7.456;2023-03-23T09:22:07;19.07;49.81
22917;DHT22;11624;53.250;7.456;2023-03-23T09:24:35;19.43;49.07
22917;DHT22;11624;53.250;7.456;2023-03-23T09:27:03;19.77;47.38
22917;DHT22;11624;53.250;7.456;2023-03-23T09:29:30;19.88;47.60
22917;DHT22;11624;53.250;7.456;2023-03-23T09:31:57;19.98;46.83
22917;DHT22;11624;53.250;7.456;2023-03-23T09:34:24;19.72;46.38
22917;DHT22;11624;53.250;7.456;2023-03-23T09:36:51;19.47;47.05
22917;DHT22;11624;53.250;7.456;2023-03-23T09:39:18;19.22;46.53
22917;DHT22;11624;53.250;7.456;2023-03-23T09:42:06;18.89;46.13
22917;DHT22;11624;53.250;7.456;2023-03-23T09:44:42;18.84;47.06
22917;DHT22;11624;53.250;7.456;2023-03-23T09:47:16;19.09;47.58
22917;DHT22;11624;53.250;7.456;2023-03-23T09:49:50;19.75;47.70
22917;DHT22;11624;53.250;7.456;2023-03-23T09:52:19;20.30;45.13
22917;DHT22;11624;53.250;7.456;2023-03-23T09:54:47;20.54;43.67
22917;DHT22;11624;53.250;7.456;2023-03-23T09:57:22;20.80;42.96
22917;DHT22;11624;53.250;7.456;2023-03-23T09:59:54;21.09;40.62
22917;DHT22;11624;53.250;7.456;2023-03-23T10:02:27;21.38;40.14
22917;DHT22;11624;53.250;7.456;2023-03-23T10:04:58;21.61;40.23
22917;DHT22;11624;53.250;7.456;2023-03-23T10:07:28;21.49;39.44
22917;DHT22;11624;53.250;7.456;2023-03-23T10:09:57;20.86;40.52
22917;DHT22;11624;53.250;7.456;2023-03-23T10:12:30;20.30;42.14
22917;DHT22;11624;53.250;7.456;2023-03-23T10:15:14;19.98;43.03
22917;DHT22;11624;53.250;7.456;2023-03-23T10:17:46;19.73;43.69
22917;DHT22;11624;53.250;7.456;2023-03-23T10:20:40;19.61;44.62
22917;DHT22;11624;53.250;7.456;2023-03-23T10:23:14;19.68;45.54
22917;DHT22;11624;53.250;7.456;2023-03-23T10:25:45;19.86;45.43
22917;DHT22;11624;53.250;7.456;2023-03-23T10:28:18;20.21;45.54
22917;DHT22;11624;53.250;7.456;2023-03-23T10:30:50;20.96;44.25
22917;DHT22;11624;53.250;7.456;2023-03-23T10:33:26;21.40;42.02
22917;DHT22;11624;53.250;7.456;2023-03-23T10:35:59;21.67;40.88
22917;DHT22;11624;53.250;7.456;2023-03-23T10:38:32;22.20;39.01
22917;DHT22;11624;53.250;7.456;2023-03-23T10:41:04;22.16;38.20
22917;DHT22;11624;53.250;7.456;2023-03-23T10:43:35;22.33;37.89
22917;DHT22;11624;53.250;7.456;2023-03-23T10:46:06;22.51;38.18
22917;DHT22;11624;53.250;7.456;2023-03-23T10:48:38;23.02;36.88
22917;DHT22;11624;53.250;7.456;2023-03-23T10:51:10;22.86;34.86
22917;DHT22;11624;53.250;7.456;2023-03-23T10:53:43;22.90;35.83
22917;DHT22;11624;53.250;7.456;2023-03-23T10:56:21;23.26;34.50
22917;DHT22;11624;53.250;7.456;2023-03-23T10:58:51;23.40;34.66
22917;DHT22;11624;53.250;7.456;2023-03-23T11:01:20;23.95;34.79
22917;DHT22;11624;53.250;7.456;2023-03-23T11:03:54;23.87;32.51
22917;DHT22;11624;53.250;7.456;2023-03-23T11:06:23;23.26;32.95
22917;DHT22;11624;53.250;7.456;2023-03-23T11:08:54;23.45;34.31
22917;DHT22;11624;53.250;7.456;2023-03-23T11:11:26;23.60;34.53
22917;DHT22;11624;53.250;7.456;2023-03-23T11:13:59;23.59;34.40
22917;DHT22;11624;53.250;7.456;2023-03-23T11:16:28;23.22;34.85
22917;DHT22;11624;53.250;7.456;2023-03-23T11:18:55;22.49;36.59
22917;DHT22;11624;53.250;7.456;2023-03-23T11:21:23;21.98;37.06
22917;DHT22;11624;53.250;7.456;2023-03-23T11:23:52;21.39;38.71
22917;DHT22;11624;53.250;7.456;2023-03-23T11:26:22;21.82;38.65
22917;DHT22;11624;53.250;7.456;2023-03-23T11:28:53;21.84;37.38
22917;DHT22;11624;53.250;7.456;2023-03-23T11:31:27;21.87;36.81
22917;DHT22;11624;53.250;7.456;2023-03-23T11:33:57;21.96;36.18
22917;DHT22;11624;53.250;7.456;2023-03-23T11:36:31;22.67;35.67
22917;DHT22;11624;53.250;7.456;2023-03-23T11:38:59;22.98;34.18
22917;DHT22;11624;53.250;7.456;2023-03-23T11:41:35;23.37;34.75
22917;DHT22;11624;53.250;7.456;2023-03-23T11:44:11;23.95;34.60
22917;DHT22;11624;53.250;7.456;2023-03-23T11:46:46;24.43;31.25
22917;DHT22;11624;53.250;7.456;2023-03-23T11:49:25;24.50;32.35
22917;DHT22;11624;53.250;7.456;2023-03-23T11:51:58;24.88;32.28
22917;DHT22;11624;53.250;7.456;2023-03-23T11:54:30;25.23;31.50
22917;DHT22;11624;53.250;7.456;2023-03-23T11:56:58;25.54;31.50
22917;DHT22;11624;53.250;7.456;2023-03-23T11:59:28;25.89;29.85
22917;DHT22;11624;53.250;7.456;2023-03-23T12:02:05;25.66;30.59
22917;DHT22;11624;53.250;7.456;2023-03-23T12:04:40;25.78;28.95
22917;DHT22;11624;53.250;7.456;2023-03-23T12:07:23;25.79;28.82
22917;DHT22;11624;53.250;7.456;2023-03-23T12:10:02;25.84;28.57
22917;DHT22;11624;53.250;7.456;2023-03-23T12:12:37;25.53;27.74
22917;DHT22;11624;53.250;7.456;2023-03-23T12:15:13;25.82;27.72
22917;DHT22;11624;53.250;7.456;2023-03-23T12:17:51;25.68;28.33
22917;DHT22;11624;53.250;7.456;2023-03-23T12:20:30;25.43;28.35
22917;DHT22;11624;53.250;7.456;2023-03-23T12:23:14;24.93;28.32
22917;DHT22;11624;53.250;7.456;2023-03-23T12:29:17;25.30;28.49
22917;DHT22;11624;53.250;7.456;2023-03-23T12:31:54;24.65;29.25
22917;DHT22;11624;53.250;7.456;2023-03-23T12:34:32;23.95;30.93
22917;DHT22;11624;53.250;7.456;2023-03-23T12:37:22;23.57;30.90
22917;DHT22;11624;53.250;7.456;2023-03-23T12:42:53;23.29;32.13
22917;DHT22;11624;53.250;7.456;2023-03-23T12:45:42;23.28;31.66
22917;DHT22;11624;53.250;7.456;2023-03-23T12:48:13;23.52;31.97
22917;DHT22;11624;53.250;7.456;2023-03-23T12:51:00;23.47;30.94
22917;DHT22;11624;53.250;7.456;2023-03-23T12:53:31;23.38;29.96
22917;DHT22;11624;53.250;7.456;2023-03-23T12:56:09;23.84;31.38
22917;DHT22;11624;53.250;7.456;2023-03-23T12:58:41;24.41;28.81
22917;DHT22;11624;53.250;7.456;2023-03-23T13:01:12;24.57;30.14
22917;DHT22;11624;53.250;7.456;2023-03-23T13:03:48;24.90;28.98
22917;DHT22;11624;53.250;7.456;2023-03-23T13:06:21;25.02;29.35
22917;DHT22;11624;53.250;7.456;2023-03-23T13:08:54;25.50;29.68
22917;DHT22;11624;53.250;7.456;2023-03-23T13:11:28;25.90;28.52
22917;DHT22;11624;53.250;7.456;2023-03-23T13:14:03;26.10;28.32
22917;DHT22;11624;53.250;7.456;2023-03-23T13:16:42;25.78;26.89
22917;DHT22;11624;53.250;7.456;2023-03-23T13:19:22;25.64;27.00
22917;DHT22;11624;53.250;7.456;2023-03-23T13:21:57;25.71;26.69
22917;DHT22;11624;53.250;7.456;2023-03-23T13:24:27;25.86;26.64
22917;DHT22;11624;53.250;7.456;2023-03-23T13:26:56;25.66;25.71
22917;DHT22;11624;53.250;7.456;2023-03-23T13:29:27;25.35;26.40
22917;DHT22;11624;53.250;7.456;2023-03-23T13:32:15;24.83;26.85
22917;DHT22;11624;53.250;7.456;2023-03-23T13:34:43;24.55;27.69
22917;DHT22;11624;53.250;7.456;2023-03-23T13:37:23;24.03;28.34
22917;DHT22;11624;53.250;7.456;2023-03-23T13:39:53;23.57;29.61
22917;DHT22;11624;53.250;7.456;2023-03-23T13:42:23;23.76;30.40
22917;DHT22;11624;53.250;7.456;2023-03-23T13:45:08;23.46;30.03
22917;DHT22;11624;53.250;7.456;2023-03-23T13:47:45;23.08;31.06
22917;DHT22;11624;53.250;7.456;2023-03-23T13:50:25;22.51;32.60
22917;DHT22;11624;53.250;7.456;2023-03-23T13:52:58;22.17;32.93
22917;DHT22;11624;53.250;7.456;2023-03-23T13:55:40;21.93;33.92
22917;DHT22;11624;53.250;7.456;2023-03-23T13:58:21;21.72;34.44
22917;DHT22;11624;53.250;7.456;2023-03-23T14:01:00;21.77;34.79
22917;DHT22;11624;53.250;7.456;2023-03-23T14:03:35;22.19;34.12
22917;DHT22;11624;53.250;7.456;2023-03-23T14:06:05;22.28;34.39
22917;DHT22;11624;53.250;7.456;2023-03-23T14:08:55;22.26;34.18
22917;DHT22;11624;53.250;7.456;2023-03-23T14:11:24;22.20;34.91
22917;DHT22;11624;53.250;7.456;2023-03-23T14:14:00;21.96;34.72
22917;DHT22;11624;53.250;7.456;2023-03-23T14:16:35;22.08;35.39
22917;DHT22;11624;53.250;7.456;2023-03-23T14:19:13;22.31;35.05
22917;DHT22;11624;53.250;7.456;2023-03-23T14:21:42;22.23;35.83
22917;DHT22;11624;53.250;7.456;2023-03-23T14:24:19;22.47;35.87
22917;DHT22;11624;53.250;7.456;2023-03-23T14:26:48;22.79;33.68
22917;DHT22;11624;53.250;7.456;2023-03-23T14:29:19;22.84;33.48
22917;DHT22;11624;53.250;7.456;2023-03-23T14:31:52;22.86;33.26
22917;DHT22;11624;53.250;7.456;2023-03-23T14:34:22;22.97;33.25
22917;DHT22;11624;53.250;7.456;2023-03-23T14:36:52;22.78;32.90
22917;DHT22;11624;53.250;7.456;2023-03-23T14:39:23;22.79;33.22
22917;DHT22;11624;53.250;7.456;2023-03-23T14:41:52;23.20;31.90
22917;DHT22;11624;53.250;7.456;2023-03-23T14:44:23;23.23;31.27
22917;DHT22;11624;53.250;7.456;2023-03-23T14:46:51;23.23;31.45
22917;DHT22;11624;53.250;7.456;2023-03-23T14:49:23;23.16;31.24
22917;DHT22;11624;53.250;7.456;2023-03-23T14:51:53;23.26;31.90
22917;DHT22;11624;53.250;7.456;2023-03-23T14:54:27;23.52;32.09
22917;DHT22;11624;53.250;7.456;2023-03-23T14:56:55;23.32;31.70
22917;DHT22;11624;53.250;7.456;2023-03-23T14:59:23;23.16;32.53
22917;DHT22;11624;53.250;7.456;2023-03-23T15:01:50;23.17;32.21
22917;DHT22;11624;53.250;7.456;2023-03-23T15:04:20;23.20;31.87
22917;DHT22;11624;53.250;7.456;2023-03-23T15:06:50;23.15;32.34
22917;DHT22;11624;53.250;7.456;2023-03-23T15:09:20;23.21;32.20
22917;DHT22;11624;53.250;7.456;2023-03-23T15:11:55;23.14;31.84
22917;DHT22;11624;53.250;7.456;2023-03-23T15:14:25;22.68;32.71
22917;DHT22;11624;53.250;7.456;2023-03-23T15:16:54;22.53;33.25
22917;DHT22;11624;53.250;7.456;2023-03-23T15:19:25;22.66;33.16
22917;DHT22;11624;53.250;7.456;2023-03-23T15:21:54;22.57;32.89
22917;DHT22;11624;53.250;7.456;2023-03-23T15:24:26;22.64;33.57
22917;DHT22;11624;53.250;7.456;2023-03-23T15:27:04;22.84;33.68
22917;DHT22;11624;53.250;7.456;2023-03-23T15:29:46;22.46;33.76
22917;DHT22;11624;53.250;7.456;2023-03-23T15:32:20;22.23;34.83
22917;DHT22;11624;53.250;7.456;2023-03-23T15:34:48;22.24;35.03
22917;DHT22;11624;53.250;7.456;2023-03-23T15:37:19;22.11;35.33
22917;DHT22;11624;53.250;7.456;2023-03-23T15:39:47;21.79;35.52
22917;DHT22;11624;53.250;7.456;2023-03-23T15:42:28;21.78;35.85
22917;DHT22;11624;53.250;7.456;2023-03-23T15:45:14;21.63;35.11
22917;DHT22;11624;53.250;7.456;2023-03-23T15:47:45;21.84;35.15
22917;DHT22;11624;53.250;7.456;2023-03-23T15:50:17;21.84;35.40
22917;DHT22;11624;53.250;7.456;2023-03-23T15:52:45;21.95;35.29
22917;DHT22;11624;53.250;7.456;2023-03-23T15:55:20;22.03;35.34
22917;DHT22;11624;53.250;7.456;2023-03-23T15:57:49;21.84;35.67
22917;DHT22;11624;53.250;7.456;2023-03-23T16:00:19;21.88;35.21
22917;DHT22;11624;53.250;7.456;2023-03-23T16:02:49;21.92;35.15
22917;DHT22;11624;53.250;7.456;2023-03-23T16:05:20;22.08;35.40
22917;DHT22;11624;53.250;7.456;2023-03-23T16:07:49;22.04;35.53
22917;DHT22;11624;53.250;7.456;2023-03-23T16:10:19;21.94;35.44
22917;DHT22;11624;53.250;7.456;2023-03-23T16:12:49;21.90;35.66
22917;DHT22;11624;53.250;7.456;2023-03-23T16:15:18;21.81;35.96
22917;DHT22;11624;53.250;7.456;2023-03-23T16:17:47;21.65;36.41
22917;DHT22;11624;53.250;7.456;2023-03-23T16:20:18;21.52;36.69
22917;DHT22;11624;53.250;7.456;2023-03-23T16:22:47;21.50;36.93